sensor_id;sensor_type;location;lat;lon;timestamp;pressure;altitude;pressure_sealevel;temperature;humidity
6094;BME280;19964;42.060;24.700;2023-07-24T00:00:15;97655.09;;;22.55;61.52
6094;BME280;19964;42.060;24.700;2023-07-24T00:02:43;97648.81;;;22.29;62.36
6094;BME280;19964;42.060;24.700;2023-07-24T00:05:10;97653.84;;;22.66;61.38
6094;BME280;19964;42.060;24.700;2023-07-24T00:07:37;97649.88;;;22.77;61.59
6094;BME280;19964;42.060;24.700;2023-07-24T00:10:04;97646.63;;;22.58;62.17
6094;BME280;19964;42.060;24.700;2023-07-24T00:12:31;97651.97;;;22.53;62.31
6094;BME280;19964;42.060;24.700;2023-07-24T00:14:58;97651.31;;;22.34;62.84
6094;BME280;19964;42.060;24.700;2023-07-24T00:17:25;97643.75;;;22.05;63.59
6094;BME280;19964;42.060;24.700;2023-07-24T00:19:53;97641.78;;;22.11;63.70
6094;BME280;19964;42.060;24.700;2023-07-24T00:22:20;97607.06;;;21.77;64.33
6094;BME280;19964;42.060;24.700;2023-07-24T00:24:47;97645.00;;;21.94;64.71
6094;BME280;19964;42.060;24.700;2023-07-24T00:27:14;97643.16;;;21.95;64.61
6094;BME280;19964;42.060;24.700;2023-07-24T00:29:41;97642.38;;;21.81;65.25
6094;BME280;19964;42.060;24.700;2023-07-24T00:32:11;97639.34;;;21.87;65.15
6094;BME280;19964;42.060;24.700;2023-07-24T00:34:38;97640.63;;;21.90;65.27
6094;BME280;19964;42.060;24.700;2023-07-24T00:37:06;97568.28;;;21.37;65.70
6094;BME280;19964;42.060;24.700;2023-07-24T00:39:33;97594.75;;;21.32;66.73
6094;BME280;19964;42.060;24.700;2023-07-24T00:42:00;97631.56;;;21.50;66.92
6094;BME280;19964;42.060;24.700;2023-07-24T00:44:26;97632.72;;;21.44;67.14
6094;BME280;19964;42.060;24.700;2023-07-24T00:46:53;97632.16;;;21.47;67.10
6094;BME280;19964;42.060;24.700;2023-07-24T00:49:20;97631.66;;;21.32;67.84
6094;BME280;19964;42.060;24.700;2023-07-24T00:51:48;97620.97;;;21.23;68.13
6094;BME280;19964;42.060;24.700;2023-07-24T00:54:16;97627.13;;;21.32;68.01
6094;BME280;19964;42.060;24.700;2023-07-24T00:56:44;97630.38;;;21.29;68.05
6094;BME280;19964;42.060;24.700;2023-07-24T00:59:11;97624.34;;;21.42;67.70
6094;BME280;19964;42.060;24.700;2023-07-24T01:01:38;97628.22;;;21.31;68.22
6094;BME280;19964;42.060;24.700;2023-07-24T01:04:06;97627.03;;;21.23;68.73
6094;BME280;19964;42.060;24.700;2023-07-24T01:06:33;97630.69;;;21.09;69.30
6094;BME280;19964;42.060;24.700;2023-07-24T01:09:00;97622.00;;;21.08;69.48
6094;BME280;19964;42.060;24.700;2023-07-24T01:11:35;97633.03;;;21.10;69.71
6094;BME280;19964;42.060;24.700;2023-07-24T01:14:09;97626.56;;;21.21;69.42
6094;BME280;19964;42.060;24.700;2023-07-24T01:16:41;97629.22;;;21.35;69.38
6094;BME280;19964;42.060;24.700;2023-07-24T01:19:12;97579.38;;;21.06;68.59
6094;BME280;19964;42.060;24.700;2023-07-24T01:21:58;97639.66;;;21.40;68.46
6094;BME280;19964;42.060;24.700;2023-07-24T01:24:33;97645.25;;;21.52;67.99
6094;BME280;19964;42.060;24.700;2023-07-24T01:27:02;97642.72;;;21.61;67.72
6094;BME280;19964;42.060;24.700;2023-07-24T01:29:29;97645.25;;;21.66;68.01
6094;BME280;19964;42.060;24.700;2023-07-24T01:31:56;97639.13;;;21.70;67.25
6094;BME280;19964;42.060;24.700;2023-07-24T01:34:23;97649.13;;;21.87;67.02
6094;BME280;19964;42.060;24.700;2023-07-24T01:36:50;97647.59;;;21.67;67.51
6094;BME280;19964;42.060;24.700;2023-07-24T01:39:18;97650.72;;;21.69;67.57
6094;BME280;19964;42.060;24.700;2023-07-24T01:41:47;97642.50;;;21.44;68.75
6094;BME280;19964;42.060;24.700;2023-07-24T01:44:15;97584.94;;;20.86;69.31
6094;BME280;19964;42.060;24.700;2023-07-24T01:46:42;97648.00;;;20.96;70.95
6094;BME280;19964;42.060;24.700;2023-07-24T01:49:09;97642.41;;;20.84;71.25
6094;BME280;19964;42.060;24.700;2023-07-24T01:51:36;97584.59;;;20.42;71.55
6094;BME280;19964;42.060;24.700;2023-07-24T01:54:02;97643.09;;;20.90;71.53
6094;BME280;19964;42.060;24.700;2023-07-24T01:56:29;97643.75;;;20.82;71.91
6094;BME280;19964;42.060;24.700;2023-07-24T01:58:56;97641.03;;;21.05;70.89
6094;BME280;19964;42.060;24.700;2023-07-24T02:01:24;97595.06;;;20.79;70.90
6094;BME280;19964;42.060;24.700;2023-07-24T02:03:51;97641.16;;;21.14;70.67
6094;BME280;19964;42.060;24.700;2023-07-24T02:06:18;97645.28;;;21.20;70.73
6094;BME280;19964;42.060;24.700;2023-07-24T02:08:45;97648.84;;;21.10;71.02
6094;BME280;19964;42.060;24.700;2023-07-24T02:11:14;97645.78;;;21.22;70.71
6094;BME280;19964;42.060;24.700;2023-07-24T02:13:40;97646.69;;;21.31;70.53
6094;BME280;19964;42.060;24.700;2023-07-24T02:16:07;97644.91;;;21.26;70.47
6094;BME280;19964;42.060;24.700;2023-07-24T02:18:36;97647.69;;;21.16;70.81
6094;BME280;19964;42.060;24.700;2023-07-24T02:21:03;97645.72;;;21.08;70.97
6094;BME280;19964;42.060;24.700;2023-07-24T02:23:30;97640.25;;;21.05;70.74
6094;BME280;19964;42.060;24.700;2023-07-24T02:25:57;97640.44;;;21.08;71.15
6094;BME280;19964;42.060;24.700;2023-07-24T02:28:23;97587.78;;;20.58;71.72
6094;BME280;19964;42.060;24.700;2023-07-24T02:30:50;97631.38;;;20.82;71.82
6094;BME280;19964;42.060;24.700;2023-07-24T02:33:21;97648.94;;;21.05;71.06
6094;BME280;19964;42.060;24.700;2023-07-24T02:35:51;97645.09;;;20.98;71.43
6094;BME280;19964;42.060;24.700;2023-07-24T02:38:18;97630.28;;;20.83;71.79
6094;BME280;19964;42.060;24.700;2023-07-24T02:40:45;97653.63;;;20.90;71.78
6094;BME280;19964;42.060;24.700;2023-07-24T02:43:12;97655.41;;;20.76;72.56
6094;BME280;19964;42.060;24.700;2023-07-24T02:45:39;97654.56;;;20.62;73.31
6094;BME280;19964;42.060;24.700;2023-07-24T02:48:06;97659.56;;;20.63;73.47
6094;BME280;19964;42.060;24.700;2023-07-24T02:50:33;97651.66;;;20.26;74.49
6094;BME280;19964;42.060;24.700;2023-07-24T02:53:01;97663.97;;;20.07;76.09
6094;BME280;19964;42.060;24.700;2023-07-24T02:55:28;97651.53;;;20.12;76.20
6094;BME280;19964;42.060;24.700;2023-07-24T02:57:55;97655.91;;;20.22;75.99
6094;BME280;19964;42.060;24.700;2023-07-24T03:00:22;97655.69;;;20.13;76.28
6094;BME280;19964;42.060;24.700;2023-07-24T03:02:49;97657.31;;;20.09;76.58
6094;BME280;19964;42.060;24.700;2023-07-24T03:05:16;97668.56;;;20.20;76.03
6094;BME280;19964;42.060;24.700;2023-07-24T03:07:43;97658.75;;;20.25;76.07
6094;BME280;19964;42.060;24.700;2023-07-24T03:10:12;97656.50;;;20.14;76.16
6094;BME280;19964;42.060;24.700;2023-07-24T03:12:38;97603.06;;;19.95;76.22
6094;BME280;19964;42.060;24.700;2023-07-24T03:15:06;97645.16;;;20.18;76.14
6094;BME280;19964;42.060;24.700;2023-07-24T03:17:34;97605.09;;;19.79;77.05
6094;BME280;19964;42.060;24.700;2023-07-24T03:20:08;97650.50;;;20.08;77.43
6094;BME280;19964;42.060;24.700;2023-07-24T03:22:35;97643.97;;;20.06;77.77
6094;BME280;19964;42.060;24.700;2023-07-24T03:25:02;97654.19;;;20.31;76.61
6094;BME280;19964;42.060;24.700;2023-07-24T03:27:31;97650.34;;;20.23;77.34
6094;BME280;19964;42.060;24.700;2023-07-24T03:29:58;97658.53;;;20.22;77.41
6094;BME280;19964;42.060;24.700;2023-07-24T03:32:25;97653.84;;;20.37;76.56
6094;BME280;19964;42.060;24.700;2023-07-24T03:34:51;97648.09;;;20.35;77.23
6094;BME280;19964;42.060;24.700;2023-07-24T03:37:18;97638.00;;;20.42;76.73
6094;BME280;19964;42.060;24.700;2023-07-24T03:39:45;97652.16;;;20.65;75.98
6094;BME280;19964;42.060;24.700;2023-07-24T03:42:23;97654.38;;;20.77;75.63
6094;BME280;19964;42.060;24.700;2023-07-24T03:44:52;97639.31;;;20.77;75.38
6094;BME280;19964;42.060;24.700;2023-07-24T03:47:18;97651.41;;;20.97;75.49
6094;BME280;19964;42.060;24.700;2023-07-24T03:49:45;97661.31;;;21.23;74.75
6094;BME280;19964;42.060;24.700;2023-07-24T03:52:12;97657.81;;;21.42;74.07
6094;BME280;19964;42.060;24.700;2023-07-24T03:54:39;97650.16;;;21.59;73.37
6094;BME280;19964;42.060;24.700;2023-07-24T03:57:06;97635.50;;;21.66;72.56
6094;BME280;19964;42.060;24.700;2023-07-24T03:59:33;97646.88;;;21.94;71.98
6094;BME280;19964;42.060;24.700;2023-07-24T04:02:01;97647.63;;;22.08;69.36
6094;BME280;19964;42.060;24.700;2023-07-24T04:04:28;97645.59;;;22.19;68.14
6094;BME280;19964;42.060;24.700;2023-07-24T04:06:55;97660.53;;;22.37;69.39
6094;BME280;19964;42.060;24.700;2023-07-24T04:09:22;97657.56;;;22.52;69.04
6094;BME280;19964;42.060;24.700;2023-07-24T04:11:49;97656.78;;;22.87;68.55
6094;BME280;19964;42.060;24.700;2023-07-24T04:14:16;97655.59;;;22.93;67.69
6094;BME280;19964;42.060;24.700;2023-07-24T04:16:42;97658.97;;;23.07;66.28
6094;BME280;19964;42.060;24.700;2023-07-24T04:19:11;97656.31;;;23.07;67.35
6094;BME280;19964;42.060;24.700;2023-07-24T04:21:38;97666.94;;;23.16;66.84
6094;BME280;19964;42.060;24.700;2023-07-24T04:24:05;97620.88;;;22.86;67.98
6094;BME280;19964;42.060;24.700;2023-07-24T04:26:32;97673.56;;;23.49;68.61
6094;BME280;19964;42.060;24.700;2023-07-24T04:28:59;97681.03;;;22.67;71.03
6094;BME280;19964;42.060;24.700;2023-07-24T04:31:26;97672.81;;;22.90;70.87
6094;BME280;19964;42.060;24.700;2023-07-24T04:33:53;97675.97;;;23.15;70.23
6094;BME280;19964;42.060;24.700;2023-07-24T04:36:21;97687.09;;;23.47;69.48
6094;BME280;19964;42.060;24.700;2023-07-24T04:38:48;97651.22;;;23.33;68.80
6094;BME280;19964;42.060;24.700;2023-07-24T04:41:14;97690.34;;;23.75;69.15
6094;BME280;19964;42.060;24.700;2023-07-24T04:43:42;97689.13;;;23.28;70.60
6094;BME280;19964;42.060;24.700;2023-07-24T04:46:09;97679.59;;;23.71;69.74
6094;BME280;19964;42.060;24.700;2023-07-24T04:48:35;97690.97;;;24.03;68.54
6094;BME280;19964;42.060;24.700;2023-07-24T04:51:03;97692.00;;;23.93;68.62
6094;BME280;19964;42.060;24.700;2023-07-24T04:53:31;97687.53;;;24.02;69.29
6094;BME280;19964;42.060;24.700;2023-07-24T04:55:58;97653.50;;;23.87;68.17
6094;BME280;19964;42.060;24.700;2023-07-24T04:58:25;97649.44;;;23.81;69.42
6094;BME280;19964;42.060;24.700;2023-07-24T05:00:51;97708.56;;;24.55;68.58
6094;BME280;19964;42.060;24.700;2023-07-24T05:03:18;97672.56;;;24.62;68.90
6094;BME280;19964;42.060;24.700;2023-07-24T05:05:48;97699.41;;;24.95;68.84
6094;BME280;19964;42.060;24.700;2023-07-24T05:08:15;97691.31;;;24.92;70.36
6094;BME280;19964;42.060;24.700;2023-07-24T05:10:43;97685.84;;;25.05;69.76
6094;BME280;19964;42.060;24.700;2023-07-24T05:13:10;97671.00;;;25.13;68.92
6094;BME280;19964;42.060;24.700;2023-07-24T05:15:37;97689.75;;;24.91;69.19
6094;BME280;19964;42.060;24.700;2023-07-24T05:18:04;97686.63;;;24.80;69.03
6094;BME280;19964;42.060;24.700;2023-07-24T05:20:31;97688.13;;;24.64;70.12
6094;BME280;19964;42.060;24.700;2023-07-24T05:22:58;97688.81;;;25.04;69.26
6094;BME280;19964;42.060;24.700;2023-07-24T05:25:26;97689.56;;;25.13;69.61
6094;BME280;19964;42.060;24.700;2023-07-24T05:27:54;97634.38;;;25.06;68.50
6094;BME280;19964;42.060;24.700;2023-07-24T05:30:21;97694.06;;;25.38;68.48
6094;BME280;19964;42.060;24.700;2023-07-24T05:32:49;97708.00;;;25.18;68.96
6094;BME280;19964;42.060;24.700;2023-07-24T05:35:15;97702.19;;;25.33;68.72
6094;BME280;19964;42.060;24.700;2023-07-24T05:37:42;97701.94;;;25.81;68.84
6094;BME280;19964;42.060;24.700;2023-07-24T05:40:09;97704.19;;;25.62;69.15
6094;BME280;19964;42.060;24.700;2023-07-24T05:42:36;97643.41;;;25.14;71.27
6094;BME280;19964;42.060;24.700;2023-07-24T05:45:09;97715.91;;;25.61;71.84
6094;BME280;19964;42.060;24.700;2023-07-24T05:47:37;97714.38;;;25.17;72.74
6094;BME280;19964;42.060;24.700;2023-07-24T05:50:05;97707.22;;;25.00;70.33
6094;BME280;19964;42.060;24.700;2023-07-24T05:52:32;97705.97;;;25.23;73.62
6094;BME280;19964;42.060;24.700;2023-07-24T05:54:59;97646.69;;;25.74;71.43
6094;BME280;19964;42.060;24.700;2023-07-24T05:57:25;97644.75;;;25.45;71.36
6094;BME280;19964;42.060;24.700;2023-07-24T05:59:52;97702.06;;;25.93;69.76
6094;BME280;19964;42.060;24.700;2023-07-24T06:02:21;97694.75;;;25.90;68.95
6094;BME280;19964;42.060;24.700;2023-07-24T06:04:48;97689.38;;;25.43;69.47
6094;BME280;19964;42.060;24.700;2023-07-24T06:07:15;97689.63;;;26.43;67.73
6094;BME280;19964;42.060;24.700;2023-07-24T06:09:42;97682.75;;;26.71;64.83
6094;BME280;19964;42.060;24.700;2023-07-24T06:12:09;97682.38;;;26.81;65.62
6094;BME280;19964;42.060;24.700;2023-07-24T06:14:36;97675.22;;;26.94;64.48
6094;BME280;19964;42.060;24.700;2023-07-24T06:17:03;97651.75;;;26.75;64.36
6094;BME280;19964;42.060;24.700;2023-07-24T06:19:31;97685.75;;;27.23;64.14
6094;BME280;19964;42.060;24.700;2023-07-24T06:21:58;97683.84;;;27.11;64.97
6094;BME280;19964;42.060;24.700;2023-07-24T06:24:25;97679.88;;;27.17;64.23
6094;BME280;19964;42.060;24.700;2023-07-24T06:26:52;97660.97;;;26.78;65.03
6094;BME280;19964;42.060;24.700;2023-07-24T06:29:19;97676.84;;;26.86;65.80
6094;BME280;19964;42.060;24.700;2023-07-24T06:31:47;97677.34;;;26.38;66.80
6094;BME280;19964;42.060;24.700;2023-07-24T06:34:15;97668.69;;;26.41;68.02
6094;BME280;19964;42.060;24.700;2023-07-24T06:36:43;97671.97;;;27.09;66.74
6094;BME280;19964;42.060;24.700;2023-07-24T06:39:10;97674.72;;;27.33;66.18
6094;BME280;19964;42.060;24.700;2023-07-24T06:41:37;97669.19;;;27.83;63.51
6094;BME280;19964;42.060;24.700;2023-07-24T06:44:04;97665.06;;;27.28;65.20
6094;BME280;19964;42.060;24.700;2023-07-24T06:46:31;97669.97;;;27.39;66.02
6094;BME280;19964;42.060;24.700;2023-07-24T06:48:58;97672.66;;;26.85;66.95
6094;BME280;19964;42.060;24.700;2023-07-24T06:51:24;97657.19;;;26.99;66.89
6094;BME280;19964;42.060;24.700;2023-07-24T06:53:53;97676.59;;;27.65;65.11
6094;BME280;19964;42.060;24.700;2023-07-24T06:56:20;97679.66;;;27.43;66.61
6094;BME280;19964;42.060;24.700;2023-07-24T06:58:46;97673.00;;;28.30;64.10
6094;BME280;19964;42.060;24.700;2023-07-24T07:01:13;97675.63;;;28.54;62.00
6094;BME280;19964;42.060;24.700;2023-07-24T07:03:40;97667.41;;;28.59;62.63
6094;BME280;19964;42.060;24.700;2023-07-24T07:06:07;97667.50;;;28.63;60.31
6094;BME280;19964;42.060;24.700;2023-07-24T07:08:35;97663.75;;;28.91;60.90
6094;BME280;19964;42.060;24.700;2023-07-24T07:11:03;97657.56;;;28.75;61.86
6094;BME280;19964;42.060;24.700;2023-07-24T07:13:30;97674.72;;;28.38;59.62
6094;BME280;19964;42.060;24.700;2023-07-24T07:15:57;97665.22;;;29.17;59.97
6094;BME280;19964;42.060;24.700;2023-07-24T07:18:24;97661.13;;;29.35;56.83
6094;BME280;19964;42.060;24.700;2023-07-24T07:20:52;97641.50;;;29.27;57.48
6094;BME280;19964;42.060;24.700;2023-07-24T07:23:20;97662.69;;;28.80;58.19
6094;BME280;19964;42.060;24.700;2023-07-24T07:25:47;97658.19;;;28.57;58.18
6094;BME280;19964;42.060;24.700;2023-07-24T07:28:17;97657.84;;;28.98;58.01
6094;BME280;19964;42.060;24.700;2023-07-24T07:30:44;97653.50;;;29.49;57.16
6094;BME280;19964;42.060;24.700;2023-07-24T07:33:11;97654.06;;;29.27;56.42
6094;BME280;19964;42.060;24.700;2023-07-24T07:35:38;97656.56;;;29.08;57.21
6094;BME280;19964;42.060;24.700;2023-07-24T07:38:05;97648.84;;;29.18;55.68
6094;BME280;19964;42.060;24.700;2023-07-24T07:40:32;97646.63;;;29.20;56.12
6094;BME280;19964;42.060;24.700;2023-07-24T07:42:59;97646.16;;;29.61;55.08
6094;BME280;19964;42.060;24.700;2023-07-24T07:45:27;97646.38;;;29.84;53.49
6094;BME280;19964;42.060;24.700;2023-07-24T07:47:54;97644.88;;;30.02;53.75
6094;BME280;19964;42.060;24.700;2023-07-24T07:50:21;97652.38;;;30.12;51.46
6094;BME280;19964;42.060;24.700;2023-07-24T07:52:49;97652.31;;;29.93;52.37
6094;BME280;19964;42.060;24.700;2023-07-24T07:55:17;97649.59;;;30.78;50.86
6094;BME280;19964;42.060;24.700;2023-07-24T07:57:44;97646.91;;;30.59;51.33
6094;BME280;19964;42.060;24.700;2023-07-24T08:00:12;97645.00;;;30.40;52.13
6094;BME280;19964;42.060;24.700;2023-07-24T08:02:40;97644.41;;;30.16;52.48
6094;BME280;19964;42.060;24.700;2023-07-24T08:05:08;97638.63;;;30.64;51.19
6094;BME280;19964;42.060;24.700;2023-07-24T08:07:35;97635.19;;;30.63;52.19
6094;BME280;19964;42.060;24.700;2023-07-24T08:10:04;97637.94;;;30.86;49.54
6094;BME280;19964;42.060;24.700;2023-07-24T08:12:32;97640.25;;;31.48;50.16
6094;BME280;19964;42.060;24.700;2023-07-24T08:14:59;97631.59;;;30.94;49.19
6094;BME280;19964;42.060;24.700;2023-07-24T08:17:26;97626.88;;;31.07;50.25
6094;BME280;19964;42.060;24.700;2023-07-24T08:19:54;97634.66;;;31.15;50.02
6094;BME280;19964;42.060;24.700;2023-07-24T08:22:21;97633.72;;;31.91;51.05
6094;BME280;19964;42.060;24.700;2023-07-24T08:24:48;97633.72;;;31.69;48.75
6094;BME280;19964;42.060;24.700;2023-07-24T08:27:16;97638.59;;;31.40;49.70
6094;BME280;19964;42.060;24.700;2023-07-24T08:29:43;97630.72;;;31.28;52.06
6094;BME280;19964;42.060;24.700;2023-07-24T08:32:10;97629.25;;;31.53;49.47
6094;BME280;19964;42.060;24.700;2023-07-24T08:34:38;97633.91;;;31.15;50.18
6094;BME280;19964;42.060;24.700;2023-07-24T08:37:06;97637.06;;;31.39;51.17
6094;BME280;19964;42.060;24.700;2023-07-24T08:39:33;97631.38;;;31.44;50.65
6094;BME280;19964;42.060;24.700;2023-07-24T08:42:08;97626.66;;;32.06;50.91
6094;BME280;19964;42.060;24.700;2023-07-24T08:44:35;97630.25;;;31.91;49.15
6094;BME280;19964;42.060;24.700;2023-07-24T08:47:03;97567.88;;;31.94;48.85
6094;BME280;19964;42.060;24.700;2023-07-24T08:49:34;97605.38;;;32.76;50.73
6094;BME280;19964;42.060;24.700;2023-07-24T08:52:01;97608.81;;;33.06;46.79
6094;BME280;19964;42.060;24.700;2023-07-24T08:54:32;97622.91;;;32.66;48.48
6094;BME280;19964;42.060;24.700;2023-07-24T08:57:02;97622.19;;;31.91;48.12
6094;BME280;19964;42.060;24.700;2023-07-24T08:59:29;97614.16;;;32.17;48.05
6094;BME280;19964;42.060;24.700;2023-07-24T09:01:56;97616.53;;;32.81;48.56
6094;BME280;19964;42.060;24.700;2023-07-24T09:04:23;97611.94;;;33.11;46.68
6094;BME280;19964;42.060;24.700;2023-07-24T09:06:50;97602.13;;;33.30;46.42
6094;BME280;19964;42.060;24.700;2023-07-24T09:09:17;97553.22;;;32.43;46.18
6094;BME280;19964;42.060;24.700;2023-07-24T09:11:51;97605.00;;;33.47;46.51
6094;BME280;19964;42.060;24.700;2023-07-24T09:14:22;97605.75;;;33.48;46.57
6094;BME280;19964;42.060;24.700;2023-07-24T09:16:49;97610.44;;;33.54;46.15
6094;BME280;19964;42.060;24.700;2023-07-24T09:19:18;97604.44;;;33.75;46.96
6094;BME280;19964;42.060;24.700;2023-07-24T09:21:45;97607.34;;;33.12;46.51
6094;BME280;19964;42.060;24.700;2023-07-24T09:24:13;97593.75;;;33.42;45.03
6094;BME280;19964;42.060;24.700;2023-07-24T09:26:48;97600.19;;;33.30;45.91
6094;BME280;19964;42.060;24.700;2023-07-24T09:29:16;97585.75;;;33.45;45.76
6094;BME280;19964;42.060;24.700;2023-07-24T09:31:43;97586.41;;;34.37;43.56
6094;BME280;19964;42.060;24.700;2023-07-24T09:34:15;97586.75;;;33.30;44.64
6094;BME280;19964;42.060;24.700;2023-07-24T09:36:42;97590.69;;;32.99;45.75
6094;BME280;19964;42.060;24.700;2023-07-24T09:39:09;97579.34;;;33.16;44.09
6094;BME280;19964;42.060;24.700;2023-07-24T09:41:37;97575.56;;;33.21;45.11
6094;BME280;19964;42.060;24.700;2023-07-24T09:44:04;97574.34;;;33.15;44.54
6094;BME280;19964;42.060;24.700;2023-07-24T09:46:32;97577.59;;;33.35;44.05
6094;BME280;19964;42.060;24.700;2023-07-24T09:48:59;97556.50;;;33.37;44.15
6094;BME280;19964;42.060;24.700;2023-07-24T09:51:29;97525.94;;;33.08;44.11
6094;BME280;19964;42.060;24.700;2023-07-24T09:54:02;97547.28;;;33.38;43.68
6094;BME280;19964;42.060;24.700;2023-07-24T09:56:32;97540.00;;;33.38;44.52
6094;BME280;19964;42.060;24.700;2023-07-24T09:59:00;97553.75;;;33.30;43.85
6094;BME280;19964;42.060;24.700;2023-07-24T10:01:32;97547.88;;;33.17;44.90
6094;BME280;19964;42.060;24.700;2023-07-24T10:03:59;97541.78;;;33.71;44.49
6094;BME280;19964;42.060;24.700;2023-07-24T10:06:28;97543.84;;;33.37;42.59
6094;BME280;19964;42.060;24.700;2023-07-24T10:08:56;97516.94;;;32.93;44.66
6094;BME280;19964;42.060;24.700;2023-07-24T10:11:23;97533.66;;;33.16;43.31
6094;BME280;19964;42.060;24.700;2023-07-24T10:13:51;97533.53;;;33.46;43.31
6094;BME280;19964;42.060;24.700;2023-07-24T10:16:19;97533.09;;;33.37;42.95
6094;BME280;19964;42.060;24.700;2023-07-24T10:18:48;97523.13;;;33.41;44.76
6094;BME280;19964;42.060;24.700;2023-07-24T10:21:15;97514.59;;;33.32;42.82
6094;BME280;19964;42.060;24.700;2023-07-24T10:23:43;97506.94;;;32.90;42.24
6094;BME280;19964;42.060;24.700;2023-07-24T10:26:12;97507.72;;;33.35;41.85
6094;BME280;19964;42.060;24.700;2023-07-24T10:28:40;97510.97;;;33.54;41.39
6094;BME280;19964;42.060;24.700;2023-07-24T10:31:18;97505.28;;;33.63;40.42
6094;BME280;19964;42.060;24.700;2023-07-24T10:33:45;97494.97;;;33.24;41.53
6094;BME280;19964;42.060;24.700;2023-07-24T10:36:17;97502.34;;;33.89;41.84
6094;BME280;19964;42.060;24.700;2023-07-24T10:38:45;97488.38;;;33.15;42.21
6094;BME280;19964;42.060;24.700;2023-07-24T10:41:14;97497.47;;;33.00;40.92
6094;BME280;19964;42.060;24.700;2023-07-24T10:43:43;97490.66;;;33.13;41.03
6094;BME280;19964;42.060;24.700;2023-07-24T10:46:11;97477.22;;;33.64;40.96
6094;BME280;19964;42.060;24.700;2023-07-24T10:48:42;97484.88;;;33.55;40.37
6094;BME280;19964;42.060;24.700;2023-07-24T10:51:10;97476.25;;;33.96;39.54
6094;BME280;19964;42.060;24.700;2023-07-24T10:53:45;97456.19;;;33.76;39.15
6094;BME280;19964;42.060;24.700;2023-07-24T10:56:12;97467.56;;;33.56;38.61
6094;BME280;19964;42.060;24.700;2023-07-24T10:58:39;97394.28;;;32.57;41.15
6094;BME280;19964;42.060;24.700;2023-07-24T11:01:06;97463.78;;;33.64;40.35
6094;BME280;19964;42.060;24.700;2023-07-24T11:03:36;97440.97;;;33.44;40.62
6094;BME280;19964;42.060;24.700;2023-07-24T11:06:04;97458.78;;;33.59;39.20
6094;BME280;19964;42.060;24.700;2023-07-24T11:08:31;97457.53;;;33.49;37.90
6094;BME280;19964;42.060;24.700;2023-07-24T11:11:00;97446.72;;;33.42;38.85
6094;BME280;19964;42.060;24.700;2023-07-24T11:13:29;97443.56;;;33.87;38.86
6094;BME280;19964;42.060;24.700;2023-07-24T11:15:56;97443.88;;;33.72;38.04
6094;BME280;19964;42.060;24.700;2023-07-24T11:18:23;97444.44;;;34.05;35.27
6094;BME280;19964;42.060;24.700;2023-07-24T11:20:53;97440.59;;;34.13;35.88
6094;BME280;19964;42.060;24.700;2023-07-24T11:23:20;97439.81;;;34.09;35.20
6094;BME280;19964;42.060;24.700;2023-07-24T11:25:49;97440.09;;;33.87;36.89
6094;BME280;19964;42.060;24.700;2023-07-24T11:28:17;97436.88;;;33.60;36.20
6094;BME280;19964;42.060;24.700;2023-07-24T11:30:44;97431.38;;;34.11;36.37
6094;BME280;19964;42.060;24.700;2023-07-24T11:33:14;97432.50;;;34.10;35.94
6094;BME280;19964;42.060;24.700;2023-07-24T11:35:41;97431.66;;;33.92;35.64
6094;BME280;19964;42.060;24.700;2023-07-24T11:38:09;97424.91;;;34.40;37.36
6094;BME280;19964;42.060;24.700;2023-07-24T11:40:38;97432.13;;;34.08;37.16
6094;BME280;19964;42.060;24.700;2023-07-24T11:43:05;97427.38;;;33.80;35.57
6094;BME280;19964;42.060;24.700;2023-07-24T11:45:43;97417.16;;;34.18;33.87
6094;BME280;19964;42.060;24.700;2023-07-24T11:48:11;97418.72;;;34.29;33.77
6094;BME280;19964;42.060;24.700;2023-07-24T11:50:43;97417.63;;;34.48;33.67
6094;BME280;19964;42.060;24.700;2023-07-24T11:53:19;97423.75;;;34.41;34.08
6094;BME280;19964;42.060;24.700;2023-07-24T11:55:47;97396.28;;;33.86;33.84
6094;BME280;19964;42.060;24.700;2023-07-24T11:58:15;97403.34;;;34.23;31.50
6094;BME280;19964;42.060;24.700;2023-07-24T12:00:47;97420.63;;;34.18;31.19
6094;BME280;19964;42.060;24.700;2023-07-24T12:03:14;97417.44;;;33.88;33.14
6094;BME280;19964;42.060;24.700;2023-07-24T12:05:42;97421.66;;;33.20;32.16
6094;BME280;19964;42.060;24.700;2023-07-24T12:08:10;97407.41;;;33.85;35.05
6094;BME280;19964;42.060;24.700;2023-07-24T12:10:38;97407.16;;;34.11;35.26
6094;BME280;19964;42.060;24.700;2023-07-24T12:13:05;97410.28;;;34.41;35.33
6094;BME280;19964;42.060;24.700;2023-07-24T12:15:33;97359.97;;;34.52;35.63
6094;BME280;19964;42.060;24.700;2023-07-24T12:18:02;97398.03;;;34.47;34.19
6094;BME280;19964;42.060;24.700;2023-07-24T12:20:29;97390.72;;;34.55;33.77
6094;BME280;19964;42.060;24.700;2023-07-24T12:22:57;97391.50;;;34.87;36.32
6094;BME280;19964;42.060;24.700;2023-07-24T12:25:24;97392.63;;;34.37;35.66
6094;BME280;19964;42.060;24.700;2023-07-24T12:27:51;97384.19;;;34.63;36.27
6094;BME280;19964;42.060;24.700;2023-07-24T12:30:18;97381.41;;;34.10;36.80
6094;BME280;19964;42.060;24.700;2023-07-24T12:32:45;97381.41;;;34.06;35.58
6094;BME280;19964;42.060;24.700;2023-07-24T12:35:13;97377.88;;;33.95;36.12
6094;BME280;19964;42.060;24.700;2023-07-24T12:37:40;97371.06;;;34.19;36.08
6094;BME280;19964;42.060;24.700;2023-07-24T12:40:08;97379.91;;;34.23;35.06
6094;BME280;19964;42.060;24.700;2023-07-24T12:42:35;97385.63;;;34.18;35.55
6094;BME280;19964;42.060;24.700;2023-07-24T12:45:03;97375.66;;;34.22;33.13
6094;BME280;19964;42.060;24.700;2023-07-24T12:47:30;97366.50;;;34.55;34.23
6094;BME280;19964;42.060;24.700;2023-07-24T12:49:58;97354.53;;;34.17;34.87
6094;BME280;19964;42.060;24.700;2023-07-24T12:52:26;97364.94;;;34.61;34.70
6094;BME280;19964;42.060;24.700;2023-07-24T12:54:53;97348.03;;;34.43;34.73
6094;BME280;19964;42.060;24.700;2023-07-24T12:57:20;97353.00;;;34.23;34.76
6094;BME280;19964;42.060;24.700;2023-07-24T12:59:47;97358.41;;;34.69;35.19
6094;BME280;19964;42.060;24.700;2023-07-24T13:02:14;97347.66;;;34.69;33.55